Time,TemperatureF,DewpointF,PressureIn,WindDirection,WindDirectionDegrees,WindSpeedMPH,WindSpeedGustMPH,Humidity,HourlyPrecipIn,Conditions,Clouds,dailyrainin,SoftwareType,DateUTC
2013-02-26 00:06:00,53.9,53.0,29.34,ESE,102,4.0,6.0,96,0.11,,,0.01,weatherlink.com 1.10,2013-02-26 06:06:00,
2013-02-26 00:21:00,54.0,53.0,29.33,East,98,2.0,5.0,96,0.09,,,0.03,weatherlink.com 1.10,2013-02-26 06:21:00,
2013-02-26 00:36:00,53.7,53.0,29.32,ESE,104,1.0,5.0,96,0.05,,,0.03,weatherlink.com 1.10,2013-02-26 06:36:00,
2013-02-26 00:51:00,53.6,53.0,29.34,SSE,149,3.0,9.0,96,0.03,,,0.03,weatherlink.com 1.10,2013-02-26 06:51:00,
2013-02-26 01:07:00,53.6,52.0,29.33,SW,214,7.0,10.0,94,0.02,,,0.03,weatherlink.com 1.10,2013-02-26 07:07:00,
2013-02-26 01:22:00,53.6,51.0,29.34,SSW,201,6.0,11.0,92,0.00,,,0.03,weatherlink.com 1.10,2013-02-26 07:22:00,
2013-02-26 01:37:00,53.6,51.0,29.34,SSW,201,3.0,9.0,92,0.00,,,0.03,weatherlink.com 1.10,2013-02-26 07:37:00,
2013-02-26 01:52:00,53.2,51.0,29.34,WSW,255,4.0,7.0,91,0.00,,,0.03,weatherlink.com 1.10,2013-02-26 07:52:00,
2013-02-26 02:07:00,52.8,51.0,29.34,SW,218,1.0,8.0,92,0.00,,,0.03,weatherlink.com 1.10,2013-02-26 08:07:00,
2013-02-26 02:22:00,52.3,50.0,29.34,WSW,243,4.0,6.0,93,0.00,,,0.03,weatherlink.com 1.10,2013-02-26 08:22:00,
2013-02-26 02:37:00,51.7,50.0,29.34,SW,229,3.0,6.0,93,0.00,,,0.03,weatherlink.com 1.10,2013-02-26 08:37:00,
2013-02-26 02:52:00,51.3,49.0,29.34,SW,224,2.0,6.0,93,0.00,,,0.03,weatherlink.com 1.10,2013-02-26 08:52:00,
2013-02-26 03:07:00,51.1,49.0,29.35,ESE,109,1.0,8.0,93,0.00,,,0.03,weatherlink.com 1.10,2013-02-26 09:07:00,
2013-02-26 03:22:00,50.8,47.0,29.35,SSE,165,5.0,14.0,88,0.00,,,0.03,weatherlink.com 1.10,2013-02-26 09:22:00,
2013-02-26 03:37:00,50.3,47.0,29.36,SW,218,3.0,10.0,89,0.00,,,0.03,weatherlink.com 1.10,2013-02-26 09:37:00,
2013-02-26 03:52:00,49.7,46.0,29.37,SE,141,5.0,14.0,88,0.00,,,0.03,weatherlink.com 1.10,2013-02-26 09:52:00,
2013-02-26 04:07:00,49.4,46.0,29.37,NE,56,1.0,10.0,87,0.00,,,0.03,weatherlink.com 1.10,2013-02-26 10:07:00,
2013-02-26 04:22:00,49.1,45.0,29.37,SSW,194,7.0,12.0,85,0.00,,,0.03,weatherlink.com 1.10,2013-02-26 10:22:00,
2013-02-26 04:37:00,48.8,45.0,29.37,SW,218,3.0,7.0,86,0.00,,,0.03,weatherlink.com 1.10,2013-02-26 10:37:00,
2013-02-26 05:07:00,48.0,45.0,29.37,SW,214,5.0,8.0,88,0.00,,,0.03,weatherlink.com 1.10,2013-02-26 11:07:00,
2013-02-26 05:22:00,48.0,45.0,29.38,SSW,197,4.0,9.0,88,0.00,,,0.03,weatherlink.com 1.10,2013-02-26 11:22:00,
2013-02-26 05:37:00,47.9,44.0,29.38,SSW,204,3.0,8.0,87,0.00,,,0.03,weatherlink.com 1.10,2013-02-26 11:37:00,
2013-02-26 05:52:00,47.4,43.0,29.39,SSW,193,5.0,13.0,85,0.00,,,0.03,weatherlink.com 1.10,2013-02-26 11:52:00,
2013-02-26 06:07:00,46.4,42.0,29.40,WSW,242,5.0,14.0,84,0.00,,,0.03,weatherlink.com 1.10,2013-02-26 12:07:00,
2013-02-26 06:22:00,45.9,41.0,29.40,ENE,60,2.0,11.0,84,0.00,,,0.03,weatherlink.com 1.10,2013-02-26 12:22:00,
2013-02-26 06:37:00,45.7,41.0,29.41,SW,231,6.0,9.0,84,0.00,,,0.03,weatherlink.com 1.10,2013-02-26 12:37:00,
2013-02-26 06:53:00,45.5,41.0,29.41,SW,231,3.0,7.0,83,0.00,,,0.03,weatherlink.com 1.10,2013-02-26 12:53:00,
2013-02-26 07:08:00,45.3,41.0,29.42,SE,129,4.0,8.0,84,0.00,,,0.03,weatherlink.com 1.10,2013-02-26 13:08:00,
2013-02-26 07:23:00,45.2,40.0,29.42,SSE,152,3.0,10.0,83,0.00,,,0.03,weatherlink.com 1.10,2013-02-26 13:23:00,
2013-02-26 07:38:00,45.1,40.0,29.43,WSW,243,5.0,11.0,83,0.00,,,0.03,weatherlink.com 1.10,2013-02-26 13:38:00,
2013-02-26 07:53:00,45.0,40.0,29.44,South,188,1.0,9.0,83,0.00,,,0.03,weatherlink.com 1.10,2013-02-26 13:53:00,
2013-02-26 08:08:00,44.9,40.0,29.45,SSW,195,10.0,15.0,83,0.00,,,0.03,weatherlink.com 1.10,2013-02-26 14:08:00,
2013-02-26 08:23:00,44.7,40.0,29.45,SW,231,4.0,12.0,83,0.00,,,0.03,weatherlink.com 1.10,2013-02-26 14:23:00,
2013-02-26 08:38:00,44.6,39.0,29.46,SW,217,5.0,13.0,80,0.00,,,0.03,weatherlink.com 1.10,2013-02-26 14:38:00,
2013-02-26 08:53:00,44.5,39.0,29.47,SW,214,4.0,13.0,81,0.00,,,0.03,weatherlink.com 1.10,2013-02-26 14:53:00,
2013-02-26 09:08:00,44.2,39.0,29.47,SSE,162,6.0,15.0,81,0.00,,,0.03,weatherlink.com 1.10,2013-02-26 15:08:00,
2013-02-26 09:23:00,44.3,39.0,29.48,SW,215,7.0,14.0,80,0.00,,,0.03,weatherlink.com 1.10,2013-02-26 15:23:00,
2013-02-26 09:38:00,44.2,38.0,29.48,SW,228,9.0,11.0,80,0.00,,,0.03,weatherlink.com 1.10,2013-02-26 15:38:00,
2013-02-26 09:53:00,44.1,38.0,29.48,WSW,255,8.0,14.0,79,0.00,,,0.03,weatherlink.com 1.10,2013-02-26 15:53:00,
2013-02-26 10:08:00,44.9,38.0,29.48,SSW,208,2.0,10.0,78,0.00,,,0.03,weatherlink.com 1.10,2013-02-26 16:08:00,
2013-02-26 10:23:00,45.3,39.0,29.49,SW,229,7.0,14.0,77,0.00,,,0.03,weatherlink.com 1.10,2013-02-26 16:23:00,
2013-02-26 10:38:00,44.8,38.0,29.50,SSE,160,6.0,14.0,78,0.00,,,0.03,weatherlink.com 1.10,2013-02-26 16:38:00,
2013-02-26 10:53:00,44.1,38.0,29.49,WSW,243,8.0,13.0,79,0.00,,,0.03,weatherlink.com 1.10,2013-02-26 16:53:00,
2013-02-26 11:08:00,43.8,38.0,29.50,West,259,8.0,15.0,81,0.00,,,0.03,weatherlink.com 1.10,2013-02-26 17:08:00,
2013-02-26 11:23:00,43.2,38.0,29.50,West,267,3.0,16.0,82,0.00,,,0.03,weatherlink.com 1.10,2013-02-26 17:23:00,
2013-02-26 11:38:00,43.7,38.0,29.50,South,179,4.0,13.0,81,0.00,,,0.03,weatherlink.com 1.10,2013-02-26 17:38:00,
2013-02-26 11:53:00,43.9,38.0,29.51,SSE,156,7.0,17.0,79,0.00,,,0.03,weatherlink.com 1.10,2013-02-26 17:53:00,
2013-02-26 12:08:00,43.1,38.0,29.52,WSW,245,4.0,15.0,81,0.00,,,0.03,weatherlink.com 1.10,2013-02-26 18:08:00,
2013-02-26 12:23:00,42.0,38.0,29.52,SW,236,9.0,14.0,86,0.00,,,0.03,weatherlink.com 1.10,2013-02-26 18:23:00,
2013-02-26 12:38:00,41.4,38.0,29.53,WSW,243,9.0,14.0,87,0.00,,,0.03,weatherlink.com 1.10,2013-02-26 18:38:00,
2013-02-26 13:09:00,41.2,37.0,29.53,SE,136,2.0,14.0,86,0.00,,,0.03,weatherlink.com 1.10,2013-02-26 19:09:00,
2013-02-26 13:24:00,41.2,38.0,29.53,ENE,76,2.0,11.0,87,0.00,,,0.03,weatherlink.com 1.10,2013-02-26 19:24:00,
2013-02-26 13:39:00,40.9,38.0,29.54,West,269,7.0,10.0,88,0.01,,,0.04,weatherlink.com 1.10,2013-02-26 19:39:00,
2013-02-26 13:54:00,40.9,38.0,29.55,SW,232,6.0,8.0,88,0.01,,,0.04,weatherlink.com 1.10,2013-02-26 19:54:00,
2013-02-26 14:24:00,41.9,37.0,29.56,SSW,195,2.0,11.0,82,0.01,,,0.04,weatherlink.com 1.10,2013-02-26 20:24:00,
2013-02-26 14:39:00,42.1,37.0,29.56,SW,215,7.0,9.0,82,0.00,,,0.04,weatherlink.com 1.10,2013-02-26 20:39:00,
2013-02-26 14:54:00,41.8,38.0,29.56,South,169,1.0,12.0,87,0.00,,,0.04,weatherlink.com 1.10,2013-02-26 20:54:00,
2013-02-26 15:09:00,42.9,38.0,29.56,ENE,77,3.0,9.0,84,0.00,,,0.04,weatherlink.com 1.10,2013-02-26 21:09:00,
2013-02-26 15:24:00,42.8,37.0,29.57,SW,215,3.0,11.0,81,0.00,,,0.04,weatherlink.com 1.10,2013-02-26 21:24:00,
2013-02-26 15:39:00,43.0,37.0,29.58,South,188,1.0,12.0,79,0.00,,,0.04,weatherlink.com 1.10,2013-02-26 21:39:00,
2013-02-26 15:54:00,43.0,36.0,29.59,WNW,294,1.0,12.0,77,0.00,,,0.04,weatherlink.com 1.10,2013-02-26 21:54:00,
2013-02-26 16:09:00,43.1,36.0,29.59,WSW,252,3.0,12.0,75,0.00,,,0.04,weatherlink.com 1.10,2013-02-26 22:09:00,
2013-02-26 16:24:00,43.1,36.0,29.59,ENE,69,1.0,6.0,75,0.00,,,0.04,weatherlink.com 1.10,2013-02-26 22:24:00,
2013-02-26 16:39:00,43.3,36.0,29.60,NNW,338,2.0,9.0,75,0.00,,,0.04,weatherlink.com 1.10,2013-02-26 22:39:00,
2013-02-26 16:54:00,43.1,35.0,29.60,WNW,294,2.0,11.0,74,0.00,,,0.04,weatherlink.com 1.10,2013-02-26 22:54:00,
2013-02-26 17:09:00,42.8,35.0,29.62,SSE,152,3.0,10.0,75,0.00,,,0.04,weatherlink.com 1.10,2013-02-26 23:09:00,
2013-02-26 17:24:00,42.5,35.0,29.63,East,80,4.0,10.0,75,0.00,,,0.04,weatherlink.com 1.10,2013-02-26 23:24:00,
2013-02-26 17:39:00,42.4,35.0,29.64,SW,225,2.0,7.0,76,0.00,,,0.04,weatherlink.com 1.10,2013-02-26 23:39:00,
2013-02-26 17:54:00,42.2,35.0,29.65,SSE,159,2.0,8.0,76,0.00,,,0.04,weatherlink.com 1.10,2013-02-26 23:54:00,
2013-02-26 18:09:00,42.0,35.0,29.66,East,81,0.0,7.0,76,0.00,,,0.04,weatherlink.com 1.10,2013-02-27 00:09:00,
2013-02-26 18:24:00,41.8,35.0,29.68,SW,228,4.0,11.0,76,0.00,,,0.04,weatherlink.com 1.10,2013-02-27 00:24:00,
2013-02-26 18:39:00,41.7,35.0,29.69,ESE,113,1.0,12.0,77,0.00,,,0.04,weatherlink.com 1.10,2013-02-27 00:39:00,
2013-02-26 18:54:00,41.6,35.0,29.69,SSW,198,1.0,17.0,77,0.00,,,0.04,weatherlink.com 1.10,2013-02-27 00:54:00,
2013-02-26 19:09:00,41.6,35.0,29.70,SW,221,8.0,11.0,77,0.00,,,0.04,weatherlink.com 1.10,2013-02-27 01:09:00,
2013-02-26 19:24:00,41.5,35.0,29.71,NW,311,3.0,8.0,77,0.00,,,0.04,weatherlink.com 1.10,2013-02-27 01:24:00,
2013-02-26 19:39:00,41.4,35.0,29.72,WNW,288,4.0,10.0,77,0.00,,,0.04,weatherlink.com 1.10,2013-02-27 01:39:00,
2013-02-26 19:54:00,41.3,35.0,29.73,ESE,106,2.0,9.0,77,0.00,,,0.04,weatherlink.com 1.10,2013-02-27 01:54:00,
2013-02-26 20:09:00,41.2,35.0,29.73,SE,146,1.0,10.0,78,0.00,,,0.04,weatherlink.com 1.10,2013-02-27 02:09:00,
2013-02-26 20:24:00,41.2,35.0,29.74,NW,305,1.0,10.0,78,0.00,,,0.04,weatherlink.com 1.10,2013-02-27 02:24:00,
2013-02-26 20:40:00,41.1,34.0,29.75,NE,50,0.0,10.0,77,0.00,,,0.04,weatherlink.com 1.10,2013-02-27 02:40:00,
2013-02-26 20:55:00,41.1,34.0,29.76,SW,233,3.0,7.0,77,0.00,,,0.04,weatherlink.com 1.10,2013-02-27 02:55:00,
2013-02-26 21:10:00,41.0,34.0,29.76,ESE,109,1.0,9.0,77,0.00,,,0.04,weatherlink.com 1.10,2013-02-27 03:10:00,
2013-02-26 21:25:00,41.0,34.0,29.77,North,6,3.0,9.0,77,0.00,,,0.04,weatherlink.com 1.10,2013-02-27 03:25:00,
2013-02-26 21:40:00,40.9,35.0,29.77,SSW,194,1.0,8.0,78,0.00,,,0.04,weatherlink.com 1.10,2013-02-27 03:40:00,
2013-02-26 21:55:00,40.7,34.0,29.78,ESE,113,2.0,8.0,77,0.00,,,0.04,weatherlink.com 1.10,2013-02-27 03:55:00,
2013-02-26 22:10:00,40.7,34.0,29.78,SW,219,2.0,8.0,78,0.00,,,0.04,weatherlink.com 1.10,2013-02-27 04:10:00,
2013-02-26 22:25:00,40.7,34.0,29.79,SSE,159,2.0,7.0,78,0.00,,,0.04,weatherlink.com 1.10,2013-02-27 04:25:00,
2013-02-26 22:40:00,40.7,34.0,29.79,SE,138,2.0,8.0,78,0.00,,,0.04,weatherlink.com 1.10,2013-02-27 04:40:00,
2013-02-26 22:55:00,40.7,34.0,29.79,WSW,248,3.0,9.0,78,0.00,,,0.04,weatherlink.com 1.10,2013-02-27 04:55:00,
2013-02-26 23:10:00,40.7,34.0,29.80,South,184,1.0,5.0,78,0.00,,,0.04,weatherlink.com 1.10,2013-02-27 05:10:00,
2013-02-26 23:25:00,40.6,34.0,29.80,East,94,1.0,8.0,78,0.00,,,0.04,weatherlink.com 1.10,2013-02-27 05:25:00,
2013-02-26 23:40:00,40.5,34.0,29.81,North,3,1.0,7.0,79,0.00,,,0.04,weatherlink.com 1.10,2013-02-27 05:40:00,
2013-02-26 23:55:00,40.4,34.0,29.81,NNW,330,0.0,8.0,79,0.00,,,0.04,weatherlink.com 1.10,2013-02-27 05:55:00,